sensor_id;sensor_type;location;lat;lon;timestamp;pressure;altitude;pressure_sealevel;temperature;humidity
78337;BME280;67610;51.588;7.002;2023-02-28T00:01:22;102295.38;;;2.71;55.70
78337;BME280;67610;51.588;7.002;2023-02-28T00:03:48;102304.81;;;2.74;55.56
78337;BME280;67610;51.588;7.002;2023-02-28T00:06:14;102312.69;;;2.72;55.81
78337;BME280;67610;51.588;7.002;2023-02-28T00:08:39;102301.53;;;2.69;55.74
78337;BME280;67610;51.588;7.002;2023-02-28T00:11:07;102306.06;;;2.64;55.87
78337;BME280;67610;51.588;7.002;2023-02-28T00:13:34;102304.50;;;2.60;56.06
78337;BME280;67610;51.588;7.002;2023-02-28T00:16:11;102301.19;;;2.56;55.94
78337;BME280;67610;51.588;7.002;2023-02-28T00:18:38;102310.63;;;2.59;55.88
78337;BME280;67610;51.588;7.002;2023-02-28T00:21:04;102313.22;;;2.59;55.68
78337;BME280;67610;51.588;7.002;2023-02-28T00:23:30;102315.00;;;2.57;55.68
78337;BME280;67610;51.588;7.002;2023-02-28T00:25:55;102314.97;;;2.58;55.81
78337;BME280;67610;51.588;7.002;2023-02-28T00:28:21;102311.81;;;2.50;55.87
78337;BME280;67610;51.588;7.002;2023-02-28T00:30:47;102311.88;;;2.49;55.95
78337;BME280;67610;51.588;7.002;2023-02-28T00:33:12;102319.78;;;2.46;56.18
78337;BME280;67610;51.588;7.002;2023-02-28T00:35:37;102319.00;;;2.44;55.92
78337;BME280;67610;51.588;7.002;2023-02-28T00:38:03;102318.22;;;2.42;55.97
78337;BME280;67610;51.588;7.002;2023-02-28T00:40:28;102320.81;;;2.42;56.15
78337;BME280;67610;51.588;7.002;2023-02-28T00:42:54;102314.84;;;2.40;55.92
78337;BME280;67610;51.588;7.002;2023-02-28T00:45:19;102320.88;;;2.40;56.00
78337;BME280;67610;51.588;7.002;2023-02-28T00:47:45;102312.28;;;2.38;55.92
78337;BME280;67610;51.588;7.002;2023-02-28T00:50:12;102317.53;;;2.37;56.03
78337;BME280;67610;51.588;7.002;2023-02-28T00:52:37;102315.84;;;2.36;56.07
78337;BME280;67610;51.588;7.002;2023-02-28T00:55:03;102320.22;;;2.34;55.89
78337;BME280;67610;51.588;7.002;2023-02-28T00:57:28;102321.16;;;2.33;55.94
78337;BME280;67610;51.588;7.002;2023-02-28T00:59:54;102317.00;;;2.29;55.99
78337;BME280;67610;51.588;7.002;2023-02-28T01:02:21;102319.59;;;2.29;56.06
78337;BME280;67610;51.588;7.002;2023-02-28T01:04:47;102321.34;;;2.28;56.00
78337;BME280;67610;51.588;7.002;2023-02-28T01:07:12;102326.59;;;2.27;56.20
78337;BME280;67610;51.588;7.002;2023-02-28T01:09:38;102330.25;;;2.21;56.27
78337;BME280;67610;51.588;7.002;2023-02-28T01:12:04;102327.81;;;2.17;56.05
78337;BME280;67610;51.588;7.002;2023-02-28T01:14:29;102325.34;;;2.13;56.22
78337;BME280;67610;51.588;7.002;2023-02-28T01:16:55;102329.03;;;2.08;56.29
78337;BME280;67610;51.588;7.002;2023-02-28T01:19:20;102326.47;;;2.06;56.38
78337;BME280;67610;51.588;7.002;2023-02-28T01:21:45;102327.22;;;2.10;56.11
78337;BME280;67610;51.588;7.002;2023-02-28T01:24:11;102323.81;;;2.08;56.34
78337;BME280;67610;51.588;7.002;2023-02-28T01:26:36;102330.69;;;2.09;56.08
78337;BME280;67610;51.588;7.002;2023-02-28T01:29:02;102339.34;;;2.09;56.06
78337;BME280;67610;51.588;7.002;2023-02-28T01:31:27;102323.94;;;2.05;55.80
78337;BME280;67610;51.588;7.002;2023-02-28T01:33:53;102317.66;;;2.10;55.53
78337;BME280;67610;51.588;7.002;2023-02-28T01:36:21;102314.28;;;2.08;55.40
78337;BME280;67610;51.588;7.002;2023-02-28T01:38:47;102320.41;;;2.06;55.55
78337;BME280;67610;51.588;7.002;2023-02-28T01:41:17;102312.59;;;2.07;55.43
78337;BME280;67610;51.588;7.002;2023-02-28T01:46:08;102309.22;;;2.05;55.21
78337;BME280;67610;51.588;7.002;2023-02-28T01:48:38;102308.34;;;2.05;54.96
78337;BME280;67610;51.588;7.002;2023-02-28T01:51:09;102306.63;;;2.05;54.77
78337;BME280;67610;51.588;7.002;2023-02-28T01:53:41;102303.28;;;2.02;54.96
78337;BME280;67610;51.588;7.002;2023-02-28T01:56:12;102307.78;;;1.97;54.99
78337;BME280;67610;51.588;7.002;2023-02-28T01:58:38;102300.84;;;1.97;55.10
78337;BME280;67610;51.588;7.002;2023-02-28T02:01:04;102299.19;;;1.96;55.26
78337;BME280;67610;51.588;7.002;2023-02-28T02:03:30;102296.63;;;1.95;55.38
78337;BME280;67610;51.588;7.002;2023-02-28T02:05:56;102294.09;;;1.93;55.42
78337;BME280;67610;51.588;7.002;2023-02-28T02:08:24;102287.31;;;1.89;55.51
78337;BME280;67610;51.588;7.002;2023-02-28T02:10:56;102286.50;;;1.87;55.64
78337;BME280;67610;51.588;7.002;2023-02-28T02:13:52;102280.59;;;1.84;55.83
78337;BME280;67610;51.588;7.002;2023-02-28T02:16:50;102285.97;;;1.79;55.79
78337;BME280;67610;51.588;7.002;2023-02-28T02:19:51;102277.50;;;1.74;55.84
78337;BME280;67610;51.588;7.002;2023-02-28T02:25:34;102269.03;;;1.69;55.47
78337;BME280;67610;51.588;7.002;2023-02-28T02:37:07;102271.63;;;1.69;55.05
78337;BME280;67610;51.588;7.002;2023-02-28T02:39:53;102276.81;;;1.69;54.90
78337;BME280;67610;51.588;7.002;2023-02-28T02:43:07;102276.81;;;1.69;54.77
78337;BME280;67610;51.588;7.002;2023-02-28T02:48:03;102286.38;;;1.67;54.68
78337;BME280;67610;51.588;7.002;2023-02-28T02:50:34;102288.97;;;1.67;54.74
78337;BME280;67610;51.588;7.002;2023-02-28T02:53:03;102289.13;;;1.64;54.77
78337;BME280;67610;51.588;7.002;2023-02-28T02:55:33;102290.94;;;1.61;54.91
78337;BME280;67610;51.588;7.002;2023-02-28T02:58:03;102290.22;;;1.57;54.92
78337;BME280;67610;51.588;7.002;2023-02-28T03:00:37;102289.47;;;1.54;55.10
78337;BME280;67610;51.588;7.002;2023-02-28T03:03:05;102287.84;;;1.51;54.89
78337;BME280;67610;51.588;7.002;2023-02-28T03:05:52;102285.34;;;1.48;54.79
78337;BME280;67610;51.588;7.002;2023-02-28T03:08:17;102286.41;;;1.42;54.93
78337;BME280;67610;51.588;7.002;2023-02-28T03:10:50;102279.59;;;1.40;54.71
78337;BME280;67610;51.588;7.002;2023-02-28T03:21:11;102284.25;;;1.30;54.95
78337;BME280;67610;51.588;7.002;2023-02-28T03:23:49;102281.66;;;1.30;54.64
78337;BME280;67610;51.588;7.002;2023-02-28T03:26:22;102278.25;;;1.28;54.38
78337;BME280;67610;51.588;7.002;2023-02-28T03:29:14;102278.34;;;1.25;54.66
78337;BME280;67610;51.588;7.002;2023-02-28T03:31:51;102276.63;;;1.26;54.61
78337;BME280;67610;51.588;7.002;2023-02-28T03:34:25;102284.16;;;1.32;54.49
78337;BME280;67610;51.588;7.002;2023-02-28T03:37:02;102286.66;;;1.35;54.09
78337;BME280;67610;51.588;7.002;2023-02-28T03:39:36;102288.47;;;1.33;54.20
78337;BME280;67610;51.588;7.002;2023-02-28T03:42:11;102286.66;;;1.35;54.10
78337;BME280;67610;51.588;7.002;2023-02-28T03:44:43;102285.88;;;1.33;53.98
78337;BME280;67610;51.588;7.002;2023-02-28T03:47:17;102290.13;;;1.35;53.91
78337;BME280;67610;51.588;7.002;2023-02-28T03:50:01;102289.31;;;1.33;53.86
78337;BME280;67610;51.588;7.002;2023-02-28T03:52:31;102294.66;;;1.29;53.70
78337;BME280;67610;51.588;7.002;2023-02-28T03:55:02;102285.97;;;1.30;53.79
78337;BME280;67610;51.588;7.002;2023-02-28T03:57:37;102286.09;;;1.27;53.91
78337;BME280;67610;51.588;7.002;2023-02-28T04:00:27;102288.78;;;1.24;53.76
78337;BME280;67610;51.588;7.002;2023-02-28T04:02:54;102284.50;;;1.23;53.82
78337;BME280;67610;51.588;7.002;2023-02-28T04:05:20;102289.66;;;1.23;53.61
78337;BME280;67610;51.588;7.002;2023-02-28T04:07:46;102290.63;;;1.20;53.75
78337;BME280;67610;51.588;7.002;2023-02-28T04:10:12;102288.88;;;1.21;53.56
78337;BME280;67610;51.588;7.002;2023-02-28T04:12:38;102292.41;;;1.18;53.75
78337;BME280;67610;51.588;7.002;2023-02-28T04:15:04;102291.59;;;1.18;53.51
78337;BME280;67610;51.588;7.002;2023-02-28T04:17:30;102282.28;;;1.12;53.51
78337;BME280;67610;51.588;7.002;2023-02-28T04:19:55;102293.50;;;1.13;53.45
78337;BME280;67610;51.588;7.002;2023-02-28T04:22:22;102292.63;;;1.12;53.69
78337;BME280;67610;51.588;7.002;2023-02-28T04:24:50;102290.13;;;1.09;53.98
78337;BME280;67610;51.588;7.002;2023-02-28T04:27:16;102297.91;;;1.09;53.97
78337;BME280;67610;51.588;7.002;2023-02-28T04:29:41;102293.66;;;1.07;54.01
78337;BME280;67610;51.588;7.002;2023-02-28T04:32:09;102292.03;;;1.04;54.25
78337;BME280;67610;51.588;7.002;2023-02-28T04:34:35;102296.38;;;1.04;54.19
78337;BME280;67610;51.588;7.002;2023-02-28T04:37:01;102292.16;;;1.01;53.95
78337;BME280;67610;51.588;7.002;2023-02-28T04:39:28;102300.88;;;0.99;54.09
78337;BME280;67610;51.588;7.002;2023-02-28T04:41:54;102302.66;;;0.97;54.24
78337;BME280;67610;51.588;7.002;2023-02-28T04:44:20;102301.16;;;0.90;54.12
78337;BME280;67610;51.588;7.002;2023-02-28T04:46:47;102304.53;;;0.92;54.29
78337;BME280;67610;51.588;7.002;2023-02-28T04:49:13;102305.50;;;0.89;54.46
78337;BME280;67610;51.588;7.002;2023-02-28T04:51:39;102301.09;;;0.91;54.26
78337;BME280;67610;51.588;7.002;2023-02-28T04:54:05;102301.16;;;0.90;54.10
78337;BME280;67610;51.588;7.002;2023-02-28T04:56:31;102302.13;;;0.86;54.19
78337;BME280;67610;51.588;7.002;2023-02-28T04:58:56;102309.16;;;0.82;54.35
78337;BME280;67610;51.588;7.002;2023-02-28T05:03:53;102306.63;;;0.81;54.43
78337;BME280;67610;51.588;7.002;2023-02-28T05:06:20;102308.31;;;0.82;54.33
78337;BME280;67610;51.588;7.002;2023-02-28T05:08:45;102311.81;;;0.81;54.42
78337;BME280;67610;51.588;7.002;2023-02-28T05:11:21;102307.38;;;0.84;54.36
78337;BME280;67610;51.588;7.002;2023-02-28T05:13:48;102315.19;;;0.83;54.31
78337;BME280;67610;51.588;7.002;2023-02-28T05:16:14;102309.16;;;0.82;54.12
78337;BME280;67610;51.588;7.002;2023-02-28T05:18:39;102314.69;;;0.72;54.60
78337;BME280;67610;51.588;7.002;2023-02-28T05:21:05;102313.06;;;0.67;54.86
78337;BME280;67610;51.588;7.002;2023-02-28T05:23:31;102313.94;;;0.68;54.61
78337;BME280;67610;51.588;7.002;2023-02-28T05:25:57;102319.91;;;0.70;54.59
78337;BME280;67610;51.588;7.002;2023-02-28T05:28:22;102317.09;;;0.78;54.58
78337;BME280;67610;51.588;7.002;2023-02-28T05:30:48;102312.78;;;0.77;54.41
78337;BME280;67610;51.588;7.002;2023-02-28T05:33:13;102320.47;;;0.80;54.26
78337;BME280;67610;51.588;7.002;2023-02-28T05:35:40;102315.44;;;0.75;54.47
78337;BME280;67610;51.588;7.002;2023-02-28T05:38:06;102310.31;;;0.74;54.26
78337;BME280;67610;51.588;7.002;2023-02-28T05:40:32;102315.59;;;0.70;54.46
78337;BME280;67610;51.588;7.002;2023-02-28T05:42:57;102322.56;;;0.68;54.55
78337;BME280;67610;51.588;7.002;2023-02-28T05:45:23;102327.72;;;0.68;54.65
78337;BME280;67610;51.588;7.002;2023-02-28T05:47:48;102329.38;;;0.71;54.41
78337;BME280;67610;51.588;7.002;2023-02-28T05:50:13;102322.56;;;0.68;54.33
78337;BME280;67610;51.588;7.002;2023-02-28T05:52:39;102324.94;;;0.75;54.82
78337;BME280;67610;51.588;7.002;2023-02-28T05:55:05;102328.38;;;0.75;54.72
78337;BME280;67610;51.588;7.002;2023-02-28T05:57:30;102331.81;;;0.76;54.68
78337;BME280;67610;51.588;7.002;2023-02-28T05:59:56;102337.00;;;0.76;54.81
78337;BME280;67610;51.588;7.002;2023-02-28T06:02:21;102330.19;;;0.73;54.59
78337;BME280;67610;51.588;7.002;2023-02-28T06:04:46;102326.78;;;0.71;54.65
78337;BME280;67610;51.588;7.002;2023-02-28T06:07:12;102335.50;;;0.68;54.58
78337;BME280;67610;51.588;7.002;2023-02-28T06:09:37;102339.09;;;0.63;54.65
78337;BME280;67610;51.588;7.002;2023-02-28T06:12:05;102334.78;;;0.63;54.60
78337;BME280;67610;51.588;7.002;2023-02-28T06:14:32;102335.59;;;0.65;54.69
78337;BME280;67610;51.588;7.002;2023-02-28T06:16:59;102337.28;;;0.66;54.49
78337;BME280;67610;51.588;7.002;2023-02-28T06:19:26;102348.53;;;0.65;54.58
78337;BME280;67610;51.588;7.002;2023-02-28T06:21:52;102349.47;;;0.63;54.63
78337;BME280;67610;51.588;7.002;2023-02-28T06:24:22;102346.00;;;0.64;54.55
78337;BME280;67610;51.588;7.002;2023-02-28T06:26:48;102353.00;;;0.60;54.68
78337;BME280;67610;51.588;7.002;2023-02-28T06:29:14;102355.69;;;0.57;54.79
78337;BME280;67610;51.588;7.002;2023-02-28T06:31:46;102355.78;;;0.54;54.97
78337;BME280;67610;51.588;7.002;2023-02-28T06:34:12;102353.19;;;0.54;55.00
78337;BME280;67610;51.588;7.002;2023-02-28T06:36:39;102360.00;;;0.57;54.94
78337;BME280;67610;51.588;7.002;2023-02-28T06:39:05;102356.50;;;0.59;54.99
78337;BME280;67610;51.588;7.002;2023-02-28T06:41:30;102364.16;;;0.62;54.86
78337;BME280;67610;51.588;7.002;2023-02-28T06:43:56;102362.13;;;0.72;54.64
78337;BME280;67610;51.588;7.002;2023-02-28T06:46:21;102368.97;;;0.75;54.85
78337;BME280;67610;51.588;7.002;2023-02-28T06:48:47;102364.56;;;0.77;54.82
78337;BME280;67610;51.588;7.002;2023-02-28T06:51:18;102366.28;;;0.78;54.98
78337;BME280;67610;51.588;7.002;2023-02-28T06:53:46;102370.59;;;0.79;54.90
78337;BME280;67610;51.588;7.002;2023-02-28T06:56:13;102367.72;;;0.86;54.70
78337;BME280;67610;51.588;7.002;2023-02-28T06:58:39;102359.78;;;0.92;54.49
78337;BME280;67610;51.588;7.002;2023-02-28T07:01:06;102367.28;;;1.01;54.66
78337;BME280;67610;51.588;7.002;2023-02-28T07:03:32;102368.47;;;1.17;54.83
78337;BME280;67610;51.588;7.002;2023-02-28T07:05:58;102361.94;;;1.32;54.36
78337;BME280;67610;51.588;7.002;2023-02-28T07:08:24;102374.34;;;1.49;54.66
78337;BME280;67610;51.588;7.002;2023-02-28T07:10:54;102376.13;;;1.71;54.14
78337;BME280;67610;51.588;7.002;2023-02-28T07:13:20;102371.97;;;1.92;53.95
78337;BME280;67610;51.588;7.002;2023-02-28T07:15:57;102375.50;;;2.14;53.04
78337;BME280;67610;51.588;7.002;2023-02-28T07:18:23;102370.47;;;2.33;53.02
78337;BME280;67610;51.588;7.002;2023-02-28T07:20:49;102367.94;;;2.54;52.82
78337;BME280;67610;51.588;7.002;2023-02-28T07:23:14;102368.03;;;2.74;51.79
78337;BME280;67610;51.588;7.002;2023-02-28T07:25:40;102386.34;;;2.93;51.70
78337;BME280;67610;51.588;7.002;2023-02-28T07:28:05;102376.34;;;3.04;50.88
78337;BME280;67610;51.588;7.002;2023-02-28T07:30:30;102388.13;;;3.13;50.72
78337;BME280;67610;51.588;7.002;2023-02-28T07:32:56;102383.41;;;3.22;50.21
78337;BME280;67610;51.588;7.002;2023-02-28T07:35:22;102384.00;;;3.29;49.80
78337;BME280;67610;51.588;7.002;2023-02-28T07:37:47;102383.78;;;3.35;49.75
78337;BME280;67610;51.588;7.002;2023-02-28T07:40:13;102384.56;;;3.37;48.83
78337;BME280;67610;51.588;7.002;2023-02-28T07:42:40;102390.81;;;3.33;47.80
78337;BME280;67610;51.588;7.002;2023-02-28T07:45:06;102394.19;;;3.35;48.32
78337;BME280;67610;51.588;7.002;2023-02-28T07:47:32;102388.91;;;3.36;48.37
78337;BME280;67610;51.588;7.002;2023-02-28T07:49:58;102390.53;;;3.39;47.01
78337;BME280;67610;51.588;7.002;2023-02-28T07:52:23;102387.09;;;3.38;48.11
78337;BME280;67610;51.588;7.002;2023-02-28T07:54:52;102392.09;;;3.43;47.37
78337;BME280;67610;51.588;7.002;2023-02-28T07:57:17;102390.22;;;3.46;47.31
78337;BME280;67610;51.588;7.002;2023-02-28T07:59:43;102396.06;;;3.51;47.10
78337;BME280;67610;51.588;7.002;2023-02-28T08:02:16;102396.34;;;3.66;47.12
78337;BME280;67610;51.588;7.002;2023-02-28T08:04:42;102393.75;;;3.86;46.41
78337;BME280;67610;51.588;7.002;2023-02-28T08:07:07;102391.66;;;3.94;45.15
78337;BME280;67610;51.588;7.002;2023-02-28T08:09:33;102384.75;;;4.13;44.70
78337;BME280;67610;51.588;7.002;2023-02-28T08:11:59;102398.44;;;4.37;45.12
78337;BME280;67610;51.588;7.002;2023-02-28T08:14:24;102397.38;;;4.78;45.07
78337;BME280;67610;51.588;7.002;2023-02-28T08:16:50;102398.88;;;5.19;44.61
78337;BME280;67610;51.588;7.002;2023-02-28T08:19:15;102400.63;;;5.54;43.15
78337;BME280;67610;51.588;7.002;2023-02-28T08:21:41;102404.16;;;5.88;42.42
78337;BME280;67610;51.588;7.002;2023-02-28T08:24:06;102402.66;;;6.16;42.32
78337;BME280;67610;51.588;7.002;2023-02-28T08:26:32;102389.34;;;6.54;41.60
78337;BME280;67610;51.588;7.002;2023-02-28T08:28:57;102402.34;;;6.86;39.75
78337;BME280;67610;51.588;7.002;2023-02-28T08:31:23;102399.94;;;7.13;40.01
78337;BME280;67610;51.588;7.002;2023-02-28T08:33:48;102401.50;;;7.47;39.44
78337;BME280;67610;51.588;7.002;2023-02-28T08:36:16;102401.84;;;7.70;39.04
78337;BME280;67610;51.588;7.002;2023-02-28T08:38:41;102401.59;;;7.89;38.27
78337;BME280;67610;51.588;7.002;2023-02-28T08:41:10;102397.97;;;8.20;38.09
78337;BME280;67610;51.588;7.002;2023-02-28T08:43:36;102397.06;;;8.49;37.69
78337;BME280;67610;51.588;7.002;2023-02-28T08:46:02;102403.69;;;8.83;38.07
78337;BME280;67610;51.588;7.002;2023-02-28T08:48:30;102391.72;;;9.18;38.59
78337;BME280;67610;51.588;7.002;2023-02-28T08:51:00;102392.03;;;9.53;37.60
78337;BME280;67610;51.588;7.002;2023-02-28T08:53:26;102386.88;;;9.78;36.00
78337;BME280;67610;51.588;7.002;2023-02-28T08:55:59;102380.56;;;9.93;35.13
78337;BME280;67610;51.588;7.002;2023-02-28T08:58:26;102389.09;;;10.22;36.47
78337;BME280;67610;51.588;7.002;2023-02-28T09:00:52;102380.13;;;10.49;36.05
78337;BME280;67610;51.588;7.002;2023-02-28T09:03:18;102387.84;;;10.76;35.38
78337;BME280;67610;51.588;7.002;2023-02-28T09:05:58;102389.47;;;10.90;30.03
78337;BME280;67610;51.588;7.002;2023-02-28T09:08:25;102386.22;;;10.86;32.01
78337;BME280;67610;51.588;7.002;2023-02-28T09:10:51;102376.56;;;10.87;32.40
78337;BME280;67610;51.588;7.002;2023-02-28T09:13:17;102391.59;;;10.85;31.49
78337;BME280;67610;51.588;7.002;2023-02-28T09:15:43;102382.06;;;10.71;31.35
78337;BME280;67610;51.588;7.002;2023-02-28T09:18:08;102386.19;;;10.63;30.50
78337;BME280;67610;51.588;7.002;2023-02-28T09:20:37;102388.44;;;10.43;29.91
78337;BME280;67610;51.588;7.002;2023-02-28T09:23:02;102385.09;;;10.16;29.37
78337;BME280;67610;51.588;7.002;2023-02-28T09:25:28;102385.38;;;9.99;30.29
78337;BME280;67610;51.588;7.002;2023-02-28T09:27:53;102373.28;;;9.71;30.21
78337;BME280;67610;51.588;7.002;2023-02-28T09:30:19;102384.22;;;9.65;29.81
78337;BME280;67610;51.588;7.002;2023-02-28T09:32:44;102380.38;;;9.44;30.08
78337;BME280;67610;51.588;7.002;2023-02-28T09:35:17;102377.31;;;9.38;30.03
78337;BME280;67610;51.588;7.002;2023-02-28T09:37:43;102389.91;;;9.33;29.77
78337;BME280;67610;51.588;7.002;2023-02-28T09:40:10;102376.22;;;9.28;30.21
78337;BME280;67610;51.588;7.002;2023-02-28T09:42:35;102376.84;;;9.19;29.97
78337;BME280;67610;51.588;7.002;2023-02-28T09:45:06;102376.09;;;9.17;30.11
78337;BME280;67610;51.588;7.002;2023-02-28T09:47:41;102373.75;;;9.39;29.94
78337;BME280;67610;51.588;7.002;2023-02-28T09:50:39;102376.59;;;9.48;28.20
78337;BME280;67610;51.588;7.002;2023-02-28T09:53:26;102370.94;;;9.67;29.51
78337;BME280;67610;51.588;7.002;2023-02-28T09:56:15;102374.22;;;9.83;28.69
78337;BME280;67610;51.588;7.002;2023-02-28T09:58:50;102379.72;;;10.05;28.88
78337;BME280;67610;51.588;7.002;2023-02-28T10:01:23;102382.03;;;10.22;28.53
78337;BME280;67610;51.588;7.002;2023-02-28T10:04:08;102370.03;;;10.43;29.05
78337;BME280;67610;51.588;7.002;2023-02-28T10:06:49;102374.81;;;10.62;29.08
78337;BME280;67610;51.588;7.002;2023-02-28T10:09:27;102382.75;;;10.86;28.21
78337;BME280;67610;51.588;7.002;2023-02-28T10:12:00;102375.00;;;10.72;28.26
78337;BME280;67610;51.588;7.002;2023-02-28T10:14:30;102387.28;;;10.84;28.02
78337;BME280;67610;51.588;7.002;2023-02-28T10:19:33;102370.84;;;10.93;27.77
78337;BME280;67610;51.588;7.002;2023-02-28T10:22:20;102363.81;;;10.81;27.19
78337;BME280;67610;51.588;7.002;2023-02-28T10:24:52;102372.16;;;10.75;28.36
78337;BME280;67610;51.588;7.002;2023-02-28T10:27:24;102370.44;;;10.86;27.45
78337;BME280;67610;51.588;7.002;2023-02-28T10:29:54;102364.31;;;10.86;27.09
78337;BME280;67610;51.588;7.002;2023-02-28T10:32:23;102359.91;;;10.50;27.89
78337;BME280;67610;51.588;7.002;2023-02-28T10:34:53;102365.00;;;10.40;28.07
78337;BME280;67610;51.588;7.002;2023-02-28T10:37:20;102369.22;;;10.30;28.17
78337;BME280;67610;51.588;7.002;2023-02-28T10:39:46;102359.53;;;9.93;28.58
78337;BME280;67610;51.588;7.002;2023-02-28T10:42:26;102361.00;;;9.97;28.61
78337;BME280;67610;51.588;7.002;2023-02-28T10:45:18;102362.47;;;10.01;28.70
78337;BME280;67610;51.588;7.002;2023-02-28T10:58:59;102359.66;;;10.89;27.46
78337;BME280;67610;51.588;7.002;2023-02-28T11:03:56;102347.81;;;10.84;27.03
78337;BME280;67610;51.588;7.002;2023-02-28T11:06:23;102355.75;;;10.71;27.11
78337;BME280;67610;51.588;7.002;2023-02-28T11:09:02;102349.81;;;10.57;27.52
78337;BME280;67610;51.588;7.002;2023-02-28T11:11:29;102352.97;;;10.49;27.70
78337;BME280;67610;51.588;7.002;2023-02-28T11:14:04;102349.94;;;10.42;27.57
78337;BME280;67610;51.588;7.002;2023-02-28T11:16:37;102348.03;;;10.44;28.27
78337;BME280;67610;51.588;7.002;2023-02-28T11:19:04;102364.34;;;10.49;27.94
78337;BME280;67610;51.588;7.002;2023-02-28T11:21:37;102358.03;;;10.39;26.81
78337;BME280;67610;51.588;7.002;2023-02-28T11:24:27;102342.91;;;10.05;27.23
78337;BME280;67610;51.588;7.002;2023-02-28T11:26:54;102341.97;;;9.94;28.12
78337;BME280;67610;51.588;7.002;2023-02-28T11:29:25;102349.63;;;9.71;27.02
78337;BME280;67610;51.588;7.002;2023-02-28T11:32:04;102358.81;;;9.39;27.85
78337;BME280;67610;51.588;7.002;2023-02-28T11:34:30;102350.69;;;9.17;28.00
78337;BME280;67610;51.588;7.002;2023-02-28T11:36:57;102339.41;;;9.02;28.75
78337;BME280;67610;51.588;7.002;2023-02-28T11:39:23;102353.78;;;8.97;28.82
78337;BME280;67610;51.588;7.002;2023-02-28T11:42:15;102352.09;;;8.69;28.74
78337;BME280;67610;51.588;7.002;2023-02-28T11:45:08;102344.34;;;8.39;28.93
78337;BME280;67610;51.588;7.002;2023-02-28T11:52:59;102341.25;;;8.05;30.08
78337;BME280;67610;51.588;7.002;2023-02-28T12:03:31;102324.03;;;7.58;31.70
78337;BME280;67610;51.588;7.002;2023-02-28T12:14:32;102300.97;;;7.49;31.74
78337;BME280;67610;51.588;7.002;2023-02-28T12:28:25;102277.22;;;7.38;32.77
78337;BME280;67610;51.588;7.002;2023-02-28T12:31:00;102280.69;;;7.39;32.87
78337;BME280;67610;51.588;7.002;2023-02-28T12:33:35;102285.47;;;7.46;32.38
78337;BME280;67610;51.588;7.002;2023-02-28T12:36:05;102277.97;;;7.40;32.49
78337;BME280;67610;51.588;7.002;2023-02-28T12:38:40;102277.22;;;7.38;32.73
78337;BME280;67610;51.588;7.002;2023-02-28T12:41:16;102277.41;;;7.35;32.85
78337;BME280;67610;51.588;7.002;2023-02-28T12:43:52;102266.84;;;7.37;32.84
78337;BME280;67610;51.588;7.002;2023-02-28T12:46:24;102266.75;;;7.38;33.28
78337;BME280;67610;51.588;7.002;2023-02-28T12:48:55;102276.84;;;7.30;33.69
78337;BME280;67610;51.588;7.002;2023-02-28T12:51:23;102259.63;;;7.40;33.72
78337;BME280;67610;51.588;7.002;2023-02-28T12:53:57;102268.47;;;7.53;38.12
78337;BME280;67610;51.588;7.002;2023-02-28T13:05:12;102248.16;;;7.57;34.73
78337;BME280;67610;51.588;7.002;2023-02-28T13:10:38;102258.16;;;7.36;35.29
78337;BME280;67610;51.588;7.002;2023-02-28T13:13:04;102255.81;;;7.46;34.98
78337;BME280;67610;51.588;7.002;2023-02-28T13:15:29;102251.25;;;7.35;35.43
78337;BME280;67610;51.588;7.002;2023-02-28T13:17:58;102250.03;;;7.41;35.39
78337;BME280;67610;51.588;7.002;2023-02-28T13:20:36;102240.97;;;7.46;35.10
78337;BME280;67610;51.588;7.002;2023-02-28T13:23:39;102246.09;;;7.48;35.23
78337;BME280;67610;51.588;7.002;2023-02-28T13:26:05;102258.06;;;7.24;35.17
78337;BME280;67610;51.588;7.002;2023-02-28T13:29:00;102253.81;;;7.07;35.62
78337;BME280;67610;51.588;7.002;2023-02-28T13:31:28;102251.13;;;6.93;35.29
78337;BME280;67610;51.588;7.002;2023-02-28T13:34:11;102242.34;;;6.94;35.74
78337;BME280;67610;51.588;7.002;2023-02-28T13:36:37;102244.97;;;6.94;35.86
78337;BME280;67610;51.588;7.002;2023-02-28T13:50:26;102224.13;;;6.92;36.64
78337;BME280;67610;51.588;7.002;2023-02-28T14:07:01;102215.44;;;6.92;37.56
78337;BME280;67610;51.588;7.002;2023-02-28T14:09:31;102212.19;;;6.88;37.64
78337;BME280;67610;51.588;7.002;2023-02-28T14:15:01;102231.06;;;6.93;37.86
78337;BME280;67610;51.588;7.002;2023-02-28T14:17:28;102237.38;;;6.89;38.07
78337;BME280;67610;51.588;7.002;2023-02-28T14:19:54;102227.38;;;6.82;37.86
78337;BME280;67610;51.588;7.002;2023-02-28T14:22:50;102222.16;;;6.66;38.52
78337;BME280;67610;51.588;7.002;2023-02-28T14:31:11;102229.00;;;6.69;38.11
78337;BME280;67610;51.588;7.002;2023-02-28T14:36:39;102229.34;;;6.63;38.49
78337;BME280;67610;51.588;7.002;2023-02-28T14:39:10;102218.91;;;6.63;38.38
78337;BME280;67610;51.588;7.002;2023-02-28T14:41:38;102218.47;;;6.55;38.19
78337;BME280;67610;51.588;7.002;2023-02-28T14:44:19;102229.03;;;6.53;38.43
78337;BME280;67610;51.588;7.002;2023-02-28T14:46:53;102221.41;;;6.64;38.54
78337;BME280;67610;51.588;7.002;2023-02-28T14:49:21;102217.22;;;6.62;38.28
78337;BME280;67610;51.588;7.002;2023-02-28T14:51:49;102203.00;;;6.52;38.59
78337;BME280;67610;51.588;7.002;2023-02-28T14:54:16;102220.53;;;6.50;38.68
78337;BME280;67610;51.588;7.002;2023-02-28T14:56:48;102210.84;;;6.52;39.00
78337;BME280;67610;51.588;7.002;2023-02-28T14:59:26;102208.13;;;6.53;39.08
78337;BME280;67610;51.588;7.002;2023-02-28T15:02:22;102201.97;;;6.54;38.21
78337;BME280;67610;51.588;7.002;2023-02-28T15:05:13;102213.00;;;6.59;37.77
78337;BME280;67610;51.588;7.002;2023-02-28T15:07:41;102216.38;;;6.61;37.67
78337;BME280;67610;51.588;7.002;2023-02-28T15:10:24;102210.63;;;6.55;37.75
78337;BME280;67610;51.588;7.002;2023-02-28T15:13:04;102212.19;;;6.43;38.01
78337;BME280;67610;51.588;7.002;2023-02-28T15:18:56;102198.47;;;6.40;38.43
78337;BME280;67610;51.588;7.002;2023-02-28T15:21:25;102201.81;;;6.42;38.54
78337;BME280;67610;51.588;7.002;2023-02-28T15:26:39;102180.91;;;6.42;38.54